createdAt,value
2017-08-23T00:00:55.187Z,16.10
2017-08-23T00:03:22.994Z,16.00
2017-08-23T00:08:36.506Z,16.00
2017-08-23T00:11:05.299Z,16.10
2017-08-23T00:13:33.984Z,16.00
2017-08-23T00:16:03.687Z,16.00
2017-08-23T00:18:35.350Z,15.90
2017-08-23T00:21:08.322Z,15.90
2017-08-23T00:23:36.086Z,15.80
2017-08-23T00:26:11.096Z,16.00
2017-08-23T00:28:39.899Z,15.90
2017-08-23T00:31:22.333Z,15.80
2017-08-23T00:33:51.297Z,15.80
2017-08-23T00:36:37.017Z,15.70
2017-08-23T00:41:43.227Z,15.80
2017-08-23T00:44:12.014Z,15.70
2017-08-23T00:46:39.561Z,15.60
2017-08-23T00:49:07.156Z,15.50
2017-08-23T00:54:22.193Z,15.20
2017-08-23T00:56:51.434Z,15.20
2017-08-23T00:59:20.366Z,15.10
2017-08-23T01:01:48.910Z,15.00
2017-08-23T01:04:16.519Z,15.00
2017-08-23T01:06:45.102Z,15.00
2017-08-23T01:09:31.880Z,15.00
2017-08-23T01:12:09.226Z,15.00
2017-08-23T01:14:40.002Z,14.90
2017-08-23T01:17:18.698Z,14.80
2017-08-23T01:19:50.527Z,14.80
2017-08-23T01:22:34.948Z,14.80
2017-08-23T01:25:04.769Z,14.80
2017-08-23T01:35:53.072Z,14.50
2017-08-23T01:38:38.654Z,14.40
2017-08-23T01:41:21.744Z,14.30
2017-08-23T01:49:51.122Z,14.10
2017-08-23T01:52:38.938Z,14.20
2017-08-23T01:55:24.754Z,14.30
2017-08-23T01:58:02.344Z,14.30
2017-08-23T02:00:40.031Z,14.30
2017-08-23T02:06:30.931Z,14.30
2017-08-23T02:08:59.050Z,14.30
2017-08-23T02:11:26.586Z,14.60
2017-08-23T02:13:54.130Z,14.40
2017-08-23T02:16:21.705Z,14.40
2017-08-23T02:18:49.877Z,14.40
2017-08-23T02:21:17.466Z,14.30
2017-08-23T02:23:45.071Z,14.40
2017-08-23T02:26:12.607Z,14.30
2017-08-23T02:28:40.183Z,14.40
2017-08-23T02:31:07.717Z,14.50
2017-08-23T02:33:35.350Z,14.40
2017-08-23T02:36:02.904Z,14.30
2017-08-23T02:38:30.478Z,14.30
2017-08-23T02:40:58.059Z,14.20
